Time;durP1;ratioP1;P1;durP2;ratioP2;P2;SDS_P1;SDS_P2;PMS_P1;PMS_P2;Temp;Humidity;BMP_temperature;BMP_pressure;BME280_temperature;BME280_humidity;BME280_pressure;Samples;Min_cycle;Max_cycle;Signal;HPM_P1;HPM_P2
2022/04/24 00:00:58;;;;;;;;;;;;;;;22.02;28.22;97331.06;5096504;28;956;-78
2022/04/24 00:03:23;;;;;;;;;;;;;;;22.12;27.73;97335.56;5079178;28;850;-78
2022/04/24 00:05:49;;;;;;;;;;;;;;;22.25;27.82;97333.44;5113624;28;1230;-79
2022/04/24 00:08:14;;;;;;;;;;;;;;;21.70;28.00;97324.59;5096310;28;891;-79
2022/04/24 00:10:40;;;;;;;;;;;;;;;21.30;28.65;97330.94;5083245;28;963;-78
2022/04/24 00:13:05;;;;;;;;;;;;;;;21.13;28.85;97340.78;5078541;28;1985;-78
2022/04/24 00:15:31;;;;;;;;;;;;;;;21.05;28.86;97328.16;5078860;28;909;-78
2022/04/24 00:17:56;;;;;;;;;;;;;;;21.50;28.64;97335.47;5078677;28;855;-78
2022/04/24 00:20:22;;;;;;;;;;;;;;;21.75;28.13;97340.97;5078352;28;848;-78
2022/04/24 00:22:47;;;;;;;;;;;;;;;22.06;27.40;97343.06;5110093;28;1241;-78
2022/04/24 00:25:13;;;;;;;;;;;;;;;21.58;27.92;97342.44;5078467;28;885;-79
2022/04/24 00:27:38;;;;;;;;;;;;;;;21.19;28.69;97336.16;5110182;28;938;-78
2022/04/24 00:30:04;;;;;;;;;;;;;;;20.97;28.78;97343.78;5078206;28;908;-78
2022/04/24 00:32:29;;;;;;;;;;;;;;;21.09;29.07;97345.81;5078121;28;1914;-78
2022/04/24 00:34:55;;;;;;;;;;;;;;;21.58;28.33;97348.91;5076868;28;1529;-78
2022/04/24 00:37:20;;;;;;;;;;;;;;;21.87;27.50;97349.88;5077842;28;910;-78
2022/04/24 00:39:45;;;;;;;;;;;;;;;22.11;27.09;97350.97;5078109;28;875;-78
2022/04/24 00:42:11;;;;;;;;;;;;;;;21.70;27.49;97344.41;5078481;28;1095;-78
2022/04/24 00:44:36;;;;;;;;;;;;;;;21.37;27.84;97357.38;5077964;28;915;-78
2022/04/24 00:47:20;;;;;;;;;;;;;;;20.98;28.61;97356.66;5077729;28;913;-78
2022/04/24 00:49:46;;;;;;;;;;;;;;;21.05;28.64;97359.28;5078581;28;1080;-78
2022/04/24 00:52:12;;;;;;;;;;;;;;;21.66;27.60;97363.59;5076848;28;1914;-78
2022/04/24 00:54:38;;;;;;;;;;;;;;;21.92;27.08;97371.94;5077986;28;938;-78
2022/04/24 00:57:06;;;;;;;;;;;;;;;22.07;26.74;97372.97;5077810;28;894;-78
2022/04/24 00:59:32;;;;;;;;;;;;;;;21.45;27.38;97372.84;5077855;28;903;-79
2022/04/24 01:01:57;;;;;;;;;;;;;;;21.10;28.10;97381.31;5077930;28;959;-77
2022/04/24 01:04:23;;;;;;;;;;;;;;;21.13;28.40;97379.59;5110002;28;1192;-78
2022/04/24 01:06:48;;;;;;;;;;;;;;;21.71;27.09;97374.34;5110640;28;943;-78
2022/04/24 01:09:17;;;;;;;;;;;;;;;21.91;26.95;97381.69;5077399;28;993;-78
2022/04/24 01:11:43;;;;;;;;;;;;;;;21.75;26.65;97369.31;5115256;28;1918;-79
2022/04/24 01:14:09;;;;;;;;;;;;;;;21.35;27.48;97374.00;5115645;28;973;-79
2022/04/24 01:16:35;;;;;;;;;;;;;;;21.10;27.87;97370.00;5115624;28;923;-78
2022/04/24 01:19:00;;;;;;;;;;;;;;;20.91;28.15;97373.91;5094693;28;1019;-78
2022/04/24 01:21:26;;;;;;;;;;;;;;;21.44;27.41;97359.94;5095156;28;1204;-78
2022/04/24 01:23:51;;;;;;;;;;;;;;;21.84;26.67;97366.53;5095168;28;912;-79
2022/04/24 01:26:17;;;;;;;;;;;;;;;22.04;26.42;97354.88;5095103;28;1147;-78
2022/04/24 01:28:42;;;;;;;;;;;;;;;21.53;26.84;97357.19;5094886;28;928;-79
2022/04/24 01:31:08;;;;;;;;;;;;;;;21.22;27.38;97369.16;5094697;28;1909;-78
2022/04/24 01:33:33;;;;;;;;;;;;;;;20.94;28.00;97365.31;5094670;28;983;-78
2022/04/24 01:35:58;;;;;;;;;;;;;;;21.34;27.52;97364.72;5094697;28;882;-78
2022/04/24 01:38:24;;;;;;;;;;;;;;;21.62;27.23;97377.09;5094462;28;1054;-78
2022/04/24 01:40:49;;;;;;;;;;;;;;;22.02;26.37;97367.88;5094574;28;976;-78
2022/04/24 01:43:16;;;;;;;;;;;;;;;21.88;26.29;97359.97;5062830;28;1228;-78
2022/04/24 01:45:42;;;;;;;;;;;;;;;21.32;27.09;97370.06;5074538;28;968;-78
2022/04/24 01:48:07;;;;;;;;;;;;;;;20.98;27.74;97368.78;5073340;28;911;-78
2022/04/24 01:50:33;;;;;;;;;;;;;;;21.08;27.95;97366.81;5075870;28;1090;-77
2022/04/24 01:52:58;;;;;;;;;;;;;;;21.50;27.14;97375.09;5076851;28;1910;-78
2022/04/24 01:55:24;;;;;;;;;;;;;;;21.95;26.65;97379.50;5076751;28;1097;-78
2022/04/24 01:57:49;;;;;;;;;;;;;;;21.96;26.50;97379.03;5076822;28;999;-79
2022/04/24 02:00:15;;;;;;;;;;;;;;;21.69;26.47;97388.13;5076808;28;871;-78
2022/04/24 02:02:40;;;;;;;;;;;;;;;21.30;27.17;97390.34;5076201;28;1099;-78
2022/04/24 02:05:06;;;;;;;;;;;;;;;21.10;27.36;97392.63;5076618;28;839;-78
2022/04/24 02:07:31;;;;;;;;;;;;;;;20.92;27.77;97392.44;5076664;28;935;-77
2022/04/24 02:09:56;;;;;;;;;;;;;;;21.38;27.58;97390.09;5076589;28;866;-78
2022/04/24 02:12:22;;;;;;;;;;;;;;;21.91;26.62;97393.00;5076359;28;1981;-78
2022/04/24 02:14:47;;;;;;;;;;;;;;;21.91;26.64;97382.47;5076324;28;952;-79
2022/04/24 02:17:13;;;;;;;;;;;;;;;21.51;27.26;97388.00;5076400;28;952;-78
2022/04/24 02:19:38;;;;;;;;;;;;;;;21.27;27.81;97385.56;5073558;28;955;-79
2022/04/24 02:22:04;;;;;;;;;;;;;;;21.05;28.24;97390.38;5073500;28;1036;-78
2022/04/24 02:24:29;;;;;;;;;;;;;;;21.56;27.77;97388.22;5073543;28;956;-78
2022/04/24 02:26:55;;;;;;;;;;;;;;;21.76;27.13;97370.91;5074033;28;1195;-78
2022/04/24 02:29:21;;;;;;;;;;;;;;;21.90;26.94;97392.22;5073593;28;911;-78
2022/04/24 02:31:46;;;;;;;;;;;;;;;21.46;27.76;97385.78;5073342;28;1977;-78
2022/04/24 02:34:11;;;;;;;;;;;;;;;21.19;28.04;97389.91;5073479;28;874;-78
2022/04/24 02:36:37;;;;;;;;;;;;;;;21.29;28.38;97397.19;5073579;28;1216;-78
2022/04/24 02:39:02;;;;;;;;;;;;;;;21.64;28.12;97397.22;5073209;28;931;-78
2022/04/24 02:41:28;;;;;;;;;;;;;;;21.89;27.49;97401.97;5073783;28;1104;-78
2022/04/24 02:43:53;;;;;;;;;;;;;;;21.96;27.51;97392.41;5073204;28;1109;-78
2022/04/24 02:46:19;;;;;;;;;;;;;;;21.42;28.29;97388.72;5073429;28;1051;-78
2022/04/24 02:48:44;;;;;;;;;;;;;;;21.14;28.64;97404.63;5072891;28;1054;-79
2022/04/24 02:51:09;;;;;;;;;;;;;;;21.04;28.72;97405.78;5074819;28;1979;-78
2022/04/24 02:53:35;;;;;;;;;;;;;;;21.44;28.89;97400.34;5056390;28;971;-79
2022/04/24 02:56:00;;;;;;;;;;;;;;;21.87;28.17;97403.69;5075720;28;858;-78
2022/04/24 02:58:26;;;;;;;;;;;;;;;21.91;28.01;97415.66;5074995;28;1092;-79
2022/04/24 03:00:52;;;;;;;;;;;;;;;21.53;28.45;97411.75;5075470;28;818;-78
2022/04/24 03:03:20;;;;;;;;;;;;;;;21.19;28.95;97418.19;5075435;28;910;-79
2022/04/24 03:05:49;;;;;;;;;;;;;;;21.37;29.12;97428.91;5075729;28;838;-78
2022/04/24 03:08:17;;;;;;;;;;;;;;;21.77;29.05;97428.31;5107147;28;990;-78
2022/04/24 03:10:44;;;;;;;;;;;;;;;22.05;28.40;97430.09;5075295;28;985;-78
2022/04/24 03:13:10;;;;;;;;;;;;;;;21.65;28.82;97432.78;5074554;28;1910;-77
2022/04/24 03:15:36;;;;;;;;;;;;;;;21.36;29.31;97427.34;5107758;28;872;-78
2022/04/24 03:18:02;;;;;;;;;;;;;;;21.39;29.35;97431.28;5074831;28;912;-78
2022/04/24 03:20:28;;;;;;;;;;;;;;;21.25;29.49;97433.34;5075132;28;835;-78
2022/04/24 03:22:53;;;;;;;;;;;;;;;21.57;29.88;97445.63;5075283;28;1454;-78
2022/04/24 03:25:18;;;;;;;;;;;;;;;21.86;29.17;97442.53;5075796;28;805;-79
2022/04/24 03:27:44;;;;;;;;;;;;;;;21.96;28.51;97441.34;5075227;28;991;-78
2022/04/24 03:30:09;;;;;;;;;;;;;;;21.56;29.16;97447.66;5075422;28;868;-79
2022/04/24 03:32:35;;;;;;;;;;;;;;;21.29;29.22;97456.63;5075493;28;1910;-79
2022/04/24 03:35:01;;;;;;;;;;;;;;;21.13;29.57;97451.13;5075209;28;870;-78
2022/04/24 03:37:26;;;;;;;;;;;;;;;21.09;29.52;97461.78;5075451;28;940;-79
2022/04/24 03:39:52;;;;;;;;;;;;;;;21.20;29.50;97462.22;5075261;28;939;-78
2022/04/24 03:42:17;;;;;;;;;;;;;;;21.48;29.79;97468.97;5069989;28;1693;-78
2022/04/24 03:44:43;;;;;;;;;;;;;;;21.88;28.73;97467.59;5055942;28;1876;-78
2022/04/24 03:47:08;;;;;;;;;;;;;;;21.76;28.57;97467.19;5055608;28;1008;-78
2022/04/24 03:49:34;;;;;;;;;;;;;;;21.25;29.61;97478.63;5055123;28;875;-79
2022/04/24 03:51:59;;;;;;;;;;;;;;;21.21;29.37;97477.94;5055235;28;1918;-78
2022/04/24 03:54:25;;;;;;;;;;;;;;;21.16;29.69;97474.88;5054729;28;931;-78
2022/04/24 03:56:50;;;;;;;;;;;;;;;21.58;29.35;97481.94;5055329;28;905;-78
2022/04/24 03:59:16;;;;;;;;;;;;;;;21.89;28.41;97486.16;5058474;28;1547;-77
2022/04/24 04:01:41;;;;;;;;;;;;;;;21.92;28.49;97488.09;5075332;28;1634;-78
2022/04/24 04:04:07;;;;;;;;;;;;;;;21.26;29.13;97496.38;5072886;28;1698;-78
2022/04/24 04:06:32;;;;;;;;;;;;;;;21.21;29.25;97489.25;5075473;28;928;-79
2022/04/24 04:08:58;;;;;;;;;;;;;;;21.11;29.51;97492.44;5074881;28;1124;-78
2022/04/24 04:11:23;;;;;;;;;;;;;;;21.04;29.54;97493.47;5076655;28;1909;-78
2022/04/24 04:13:49;;;;;;;;;;;;;;;21.47;29.56;97500.56;5078593;28;1050;-78
2022/04/24 04:16:14;;;;;;;;;;;;;;;21.91;28.55;97497.81;5078587;28;840;-78
2022/04/24 04:18:40;;;;;;;;;;;;;;;21.58;28.82;97495.31;5075141;28;1654;-78
2022/04/24 04:21:05;;;;;;;;;;;;;;;21.26;29.52;97497.16;5058912;28;1161;-81
2022/04/24 04:23:31;;;;;;;;;;;;;;;21.03;29.69;97506.00;5058198;28;1782;-78
2022/04/24 04:25:56;;;;;;;;;;;;;;;21.13;29.56;97510.53;5058863;28;895;-78
2022/04/24 04:28:21;;;;;;;;;;;;;;;21.77;28.75;97501.97;5058790;28;822;-78
2022/04/24 04:30:47;;;;;;;;;;;;;;;21.92;28.71;97522.06;5058920;28;695;-78
2022/04/24 04:33:13;;;;;;;;;;;;;;;22.15;28.10;97515.97;5076124;28;1901;-78
2022/04/24 04:35:38;;;;;;;;;;;;;;;21.50;29.16;97523.09;5078266;28;873;-77
2022/04/24 04:38:04;;;;;;;;;;;;;;;21.31;29.50;97522.09;5077049;28;1655;-78
2022/04/24 04:40:30;;;;;;;;;;;;;;;21.26;29.53;97528.28;5064668;28;1682;-78
2022/04/24 04:42:56;;;;;;;;;;;;;;;21.26;30.02;97531.13;5078208;28;1640;-78
2022/04/24 04:45:21;;;;;;;;;;;;;;;21.84;28.71;97530.81;5072454;28;1825;-78
2022/04/24 04:47:47;;;;;;;;;;;;;;;22.00;28.37;97534.72;5058228;28;966;-77
2022/04/24 04:50:12;;;;;;;;;;;;;;;21.41;29.46;97536.34;5058585;28;857;-78
2022/04/24 04:52:38;;;;;;;;;;;;;;;21.33;29.52;97536.56;5058577;28;1910;-78
2022/04/24 04:55:04;;;;;;;;;;;;;;;21.23;29.69;97536.88;5058366;28;916;-78
2022/04/24 04:57:29;;;;;;;;;;;;;;;21.16;29.80;97537.91;5096217;28;1748;-78
2022/04/24 04:59:55;;;;;;;;;;;;;;;21.10;30.19;97539.75;5058281;28;893;-78
2022/04/24 05:02:20;;;;;;;;;;;;;;;21.69;29.42;97541.03;5057944;28;867;-78
2022/04/24 05:04:46;;;;;;;;;;;;;;;21.96;28.57;97542.53;5057890;28;797;-78
2022/04/24 05:07:11;;;;;;;;;;;;;;;21.77;29.01;97545.22;5106409;28;926;-77
2022/04/24 05:09:39;;;;;;;;;;;;;;;21.31;29.76;97544.72;5057893;28;917;-78
2022/04/24 05:12:05;;;;;;;;;;;;;;;21.14;30.17;97545.25;5074901;28;1976;-78
2022/04/24 05:14:31;;;;;;;;;;;;;;;21.00;30.29;97552.97;5065973;28;1750;-78
2022/04/24 05:16:56;;;;;;;;;;;;;;;20.98;30.41;97546.16;5072525;28;1654;-78
2022/04/24 05:19:22;;;;;;;;;;;;;;;21.57;29.76;97534.16;5067101;28;1706;-78
2022/04/24 05:21:48;;;;;;;;;;;;;;;21.99;28.78;97535.97;5080026;28;1729;-78
2022/04/24 05:24:13;;;;;;;;;;;;;;;21.65;29.39;97540.38;5055574;28;1839;-78
2022/04/24 05:26:40;;;;;;;;;;;;;;;21.38;29.90;97537.25;5074846;28;937;-78
2022/04/24 05:29:05;;;;;;;;;;;;;;;21.25;29.92;97546.53;5074931;28;967;-78
2022/04/24 05:31:31;;;;;;;;;;;;;;;21.17;30.12;97550.03;5061484;28;1983;-77
2022/04/24 05:33:56;;;;;;;;;;;;;;;21.07;30.40;97549.91;5054992;28;934;-77
2022/04/24 05:36:22;;;;;;;;;;;;;;;21.23;30.76;97542.56;5055302;28;1738;-79
2022/04/24 05:38:48;;;;;;;;;;;;;;;21.97;29.10;97544.16;5075121;28;870;-77
2022/04/24 05:41:13;;;;;;;;;;;;;;;21.92;29.39;97550.41;5075005;28;1142;-78
2022/04/24 05:43:38;;;;;;;;;;;;;;;21.36;29.98;97551.88;5074534;28;953;-78
2022/04/24 05:46:04;;;;;;;;;;;;;;;21.25;30.22;97557.84;5074689;28;919;-79
2022/04/24 05:48:29;;;;;;;;;;;;;;;21.05;30.68;97548.78;5062170;28;931;-78
2022/04/24 05:50:55;;;;;;;;;;;;;;;21.20;30.84;97554.78;5054745;28;977;-78
2022/04/24 05:53:20;;;;;;;;;;;;;;;21.76;29.69;97557.81;5044891;28;1910;-78
2022/04/24 05:55:46;;;;;;;;;;;;;;;22.03;29.10;97547.97;5034837;28;891;-77
2022/04/24 05:58:11;;;;;;;;;;;;;;;21.44;29.91;97561.69;5034320;28;1014;-77
2022/04/24 06:00:37;;;;;;;;;;;;;;;21.35;30.23;97569.28;5043088;28;1683;-78
2022/04/24 06:03:02;;;;;;;;;;;;;;;21.29;30.22;97564.16;5053123;28;1671;-78
2022/04/24 06:05:28;;;;;;;;;;;;;;;21.22;30.35;97564.41;5035888;28;1005;-78
2022/04/24 06:07:54;;;;;;;;;;;;;;;21.42;30.68;97567.03;5063939;28;1666;-77
2022/04/24 06:10:20;;;;;;;;;;;;;;;21.97;29.42;97573.25;5060440;28;1765;-78
2022/04/24 06:12:55;;;;;;;;;;;;;;;21.77;29.58;97570.72;5059466;28;1910;-78
2022/04/24 06:15:21;;;;;;;;;;;;;;;21.39;30.59;97572.78;5076696;28;864;-78
2022/04/24 06:17:50;;;;;;;;;;;;;;;21.18;30.90;97572.19;5109575;28;846;-78
2022/04/24 06:20:16;;;;;;;;;;;;;;;21.11;30.82;97574.47;5114931;28;929;-79
2022/04/24 06:22:54;;;;;;;;;;;;;;;21.26;31.44;97575.59;5100054;28;1005;-78
2022/04/24 06:25:19;;;;;;;;;;;;;;;21.87;29.96;97571.59;5073286;28;1714;-77
2022/04/24 06:27:45;;;;;;;;;;;;;;;22.08;29.77;97578.56;5073578;28;1398;-78
2022/04/24 06:30:11;;;;;;;;;;;;;;;21.45;30.74;97570.97;5073402;28;936;-78
2022/04/24 06:32:38;;;;;;;;;;;;;;;21.30;30.67;97582.78;5073573;28;1902;-77
2022/04/24 06:35:04;;;;;;;;;;;;;;;21.28;30.84;97584.44;5073240;28;1059;-77
2022/04/24 06:37:29;;;;;;;;;;;;;;;21.21;30.99;97579.78;5088406;28;878;-77
2022/04/24 06:39:55;;;;;;;;;;;;;;;21.12;30.95;97576.84;5074660;28;1737;-78
2022/04/24 06:42:21;;;;;;;;;;;;;;;21.10;31.08;97587.81;5074027;28;917;-78
2022/04/24 06:44:47;;;;;;;;;;;;;;;21.47;31.06;97579.81;5073586;28;1081;-78
2022/04/24 06:47:12;;;;;;;;;;;;;;;21.80;30.27;97581.09;5073540;28;933;-78
2022/04/24 06:49:37;;;;;;;;;;;;;;;21.55;30.54;97581.16;5073417;28;953;-78
2022/04/24 06:52:03;;;;;;;;;;;;;;;21.35;30.73;97589.09;5057065;28;1980;-78
2022/04/24 06:54:28;;;;;;;;;;;;;;;21.08;30.99;97593.91;5069266;28;1710;-78
2022/04/24 06:56:54;;;;;;;;;;;;;;;21.12;31.07;97581.72;5060117;28;841;-78
2022/04/24 06:59:19;;;;;;;;;;;;;;;21.08;31.08;97587.47;5056258;28;786;-78
2022/04/24 07:01:45;;;;;;;;;;;;;;;20.99;31.14;97593.03;5056148;28;1671;-78
2022/04/24 07:04:10;;;;;;;;;;;;;;;21.33;31.01;97593.16;5060275;28;1682;-78
2022/04/24 07:06:36;;;;;;;;;;;;;;;21.76;30.34;97591.78;5075243;28;1658;-78
2022/04/24 07:09:01;;;;;;;;;;;;;;;21.80;30.15;97583.94;5107225;28;984;-78
2022/04/24 07:11:26;;;;;;;;;;;;;;;21.43;30.37;97596.13;5076117;28;1902;-77
2022/04/24 07:13:52;;;;;;;;;;;;;;;21.22;30.82;97595.53;5090064;28;996;-78
2022/04/24 07:16:17;;;;;;;;;;;;;;;21.21;30.51;97591.13;5075955;28;890;-78
2022/04/24 07:18:43;;;;;;;;;;;;;;;21.06;30.92;97589.97;5075561;28;786;-78
2022/04/24 07:21:08;;;;;;;;;;;;;;;21.00;30.87;97580.47;5075245;28;1722;-77
2022/04/24 07:23:35;;;;;;;;;;;;;;;21.41;31.15;97588.09;5080373;28;1710;-78
2022/04/24 07:26:01;;;;;;;;;;;;;;;21.88;29.86;97586.53;5055582;28;1856;-78
2022/04/24 07:28:26;;;;;;;;;;;;;;;21.58;30.13;97580.25;5055854;28;929;-78
2022/04/24 07:30:52;;;;;;;;;;;;;;;21.38;30.72;97585.38;5055646;28;878;-78
2022/04/24 07:33:17;;;;;;;;;;;;;;;21.10;31.18;97590.66;5086819;28;1914;-77
2022/04/24 07:35:42;;;;;;;;;;;;;;;21.08;31.24;97587.47;5055117;28;903;-78
2022/04/24 07:38:08;;;;;;;;;;;;;;;21.08;31.21;97581.81;5055857;28;894;-78
2022/04/24 07:40:39;;;;;;;;;;;;;;;21.09;31.21;97586.25;5069993;28;1631;-78
2022/04/24 07:43:05;;;;;;;;;;;;;;;21.49;31.06;97599.97;5052802;28;922;-77
2022/04/24 07:45:36;;;;;;;;;;;;;;;21.94;29.82;97587.53;5053490;28;1015;-78
2022/04/24 07:48:02;;;;;;;;;;;;;;;21.48;30.58;97598.38;5057504;28;1043;-78
2022/04/24 07:50:29;;;;;;;;;;;;;;;21.37;30.89;97595.09;5056386;28;1683;-78
2022/04/24 07:52:54;;;;;;;;;;;;;;;21.13;31.00;97594.59;5073417;28;1919;-78
2022/04/24 07:55:22;;;;;;;;;;;;;;;21.07;31.31;97583.84;5057045;28;913;-78
2022/04/24 07:57:47;;;;;;;;;;;;;;;21.03;31.32;97593.69;5056887;28;991;-78
2022/04/24 08:00:13;;;;;;;;;;;;;;;21.00;31.35;97591.78;5056575;28;842;-78
2022/04/24 08:03:07;;;;;;;;;;;;;;;21.53;30.67;97589.31;5056142;28;1663;-78
2022/04/24 08:05:37;;;;;;;;;;;;;;;21.93;30.13;97588.78;5036176;28;1073;-78
2022/04/24 08:08:03;;;;;;;;;;;;;;;22.12;29.60;97579.22;5036710;28;1783;-78
2022/04/24 08:10:29;;;;;;;;;;;;;;;21.67;30.31;97582.41;5036669;28;937;-77
2022/04/24 08:12:55;;;;;;;;;;;;;;;21.38;30.97;97583.31;5036910;28;1910;-77
2022/04/24 08:15:20;;;;;;;;;;;;;;;21.44;30.77;97587.16;5076751;28;1019;-78
2022/04/24 08:17:45;;;;;;;;;;;;;;;21.44;30.51;97575.06;5076614;28;1046;-78
2022/04/24 08:20:13;;;;;;;;;;;;;;;21.44;30.44;97575.06;5076311;28;1026;-78
2022/04/24 08:22:39;;;;;;;;;;;;;;;21.23;31.06;97571.63;5089926;28;1735;-78
2022/04/24 08:25:05;;;;;;;;;;;;;;;21.03;31.39;97562.56;5036109;28;973;-77
2022/04/24 08:27:30;;;;;;;;;;;;;;;21.00;31.45;97569.16;5003085;28;1089;-77
2022/04/24 08:29:55;;;;;;;;;;;;;;;21.12;31.27;97553.41;5036073;28;928;-77
2022/04/24 08:32:24;;;;;;;;;;;;;;;21.11;30.81;97569.59;5036230;28;1985;-77
2022/04/24 08:34:49;;;;;;;;;;;;;;;21.41;31.47;97564.66;5031743;28;1689;-78
2022/04/24 08:37:15;;;;;;;;;;;;;;;21.74;30.86;97571.59;5017100;28;1740;-78
2022/04/24 08:39:40;;;;;;;;;;;;;;;21.72;30.68;97568.44;5035734;28;867;-79
2022/04/24 08:42:07;;;;;;;;;;;;;;;21.43;31.11;97567.81;5023734;28;1645;-78
2022/04/24 08:44:33;;;;;;;;;;;;;;;21.21;31.17;97568.47;5016000;28;956;-78
2022/04/24 08:46:58;;;;;;;;;;;;;;;21.19;31.46;97565.31;5016024;28;804;-77
2022/04/24 08:49:24;;;;;;;;;;;;;;;21.26;31.24;97567.91;5015856;28;1128;-77
2022/04/24 08:51:49;;;;;;;;;;;;;;;21.10;31.32;97570.84;5032410;28;1966;-76
2022/04/24 08:54:15;;;;;;;;;;;;;;;21.21;31.05;97568.47;5016202;28;997;-78
2022/04/24 08:56:40;;;;;;;;;;;;;;;21.12;31.37;97564.75;5043495;28;1044;-78
2022/04/24 08:59:05;;;;;;;;;;;;;;;21.35;32.08;97560.78;5074948;28;1978;-78
2022/04/24 09:01:31;;;;;;;;;;;;;;;21.76;31.05;97566.31;5059047;28;881;-78
2022/04/24 09:03:57;;;;;;;;;;;;;;;21.74;30.75;97565.94;5075676;28;994;-78
2022/04/24 09:06:22;;;;;;;;;;;;;;;21.49;31.18;97571.66;5075427;28;905;-78
2022/04/24 09:08:48;;;;;;;;;;;;;;;21.32;31.58;97568.94;5075686;28;1007;-79
2022/04/24 09:11:13;;;;;;;;;;;;;;;21.14;31.65;97563.06;5075188;28;989;-78
2022/04/24 09:16:36;;;;;;;;;;;;;;;21.19;31.44;97565.31;5055667;28;953;-78
2022/04/24 09:19:02;;;;;;;;;;;;;;;21.14;31.67;97568.72;5055465;28;1033;-78
2022/04/24 09:21:28;;;;;;;;;;;;;;;21.04;31.72;97569.84;5054995;28;1191;-78
2022/04/24 09:23:57;;;;;;;;;;;;;;;20.94;31.51;97557.59;5055405;28;878;-78
2022/04/24 09:26:22;;;;;;;;;;;;;;;21.28;32.31;97567.44;5055705;28;934;-78
2022/04/24 09:28:48;;;;;;;;;;;;;;;21.74;31.00;97559.50;5062337;28;1734;-78
2022/04/24 09:31:13;;;;;;;;;;;;;;;21.97;30.55;97561.16;5077273;28;843;-78
2022/04/24 09:33:42;;;;;;;;;;;;;;;21.42;31.06;97564.19;5075569;28;1910;-78
2022/04/24 09:36:08;;;;;;;;;;;;;;;21.36;31.26;97556.72;5090911;28;1645;-78
2022/04/24 09:38:41;;;;;;;;;;;;;;;21.22;31.21;97555.91;5089743;28;847;-78
2022/04/24 09:41:13;;;;;;;;;;;;;;;20.99;31.25;97545.72;5057395;28;859;-78
2022/04/24 09:43:40;;;;;;;;;;;;;;;20.98;31.29;97537.69;5089523;28;887;-78
2022/04/24 09:46:06;;;;;;;;;;;;;;;20.96;31.22;97540.97;5089739;28;887;-78
2022/04/24 09:48:31;;;;;;;;;;;;;;;21.03;31.34;97552.06;5057563;28;929;-78
2022/04/24 09:50:56;;;;;;;;;;;;;;;21.57;30.76;97539.03;5057418;28;1721;-78
2022/04/24 09:53:22;;;;;;;;;;;;;;;21.93;29.82;97537.81;5089633;28;1978;-78
2022/04/24 09:55:49;;;;;;;;;;;;;;;21.69;29.97;97541.03;5074783;28;1531;-78
2022/04/24 09:58:14;;;;;;;;;;;;;;;21.27;30.66;97538.38;5057699;28;1051;-78
2022/04/24 10:00:41;;;;;;;;;;;;;;;21.08;30.96;97542.22;5074672;28;1957;-78
2022/04/24 10:03:07;;;;;;;;;;;;;;;21.05;31.37;97537.47;5074543;28;1666;-78
2022/04/24 10:05:32;;;;;;;;;;;;;;;20.95;31.11;97532.94;5091097;28;1768;-78
2022/04/24 10:07:59;;;;;;;;;;;;;;;21.02;31.47;97532.72;5073999;28;1036;-78
2022/04/24 10:10:24;;;;;;;;;;;;;;;21.59;30.30;97525.22;5073499;28;963;-78
2022/04/24 10:12:50;;;;;;;;;;;;;;;22.02;29.65;97529.38;5074057;28;1976;-78
2022/04/24 10:15:16;;;;;;;;;;;;;;;21.44;30.22;97524.88;5074479;28;2167;-77
2022/04/24 10:18:00;;;;;;;;;;;;;;;21.18;30.86;97524.09;5057464;28;996;-78
2022/04/24 10:20:41;;;;;;;;;;;;;;;21.08;30.82;97525.25;5075052;28;1675;-78
2022/04/24 10:23:07;;;;;;;;;;;;;;;21.08;31.02;97519.56;5074008;28;1067;-78
2022/04/24 10:25:35;;;;;;;;;;;;;;;21.16;31.18;97515.28;5073860;28;1008;-78
2022/04/24 10:28:09;;;;;;;;;;;;;;;21.69;30.15;97521.22;5057506;28;848;-78
2022/04/24 10:30:35;;;;;;;;;;;;;;;21.75;29.84;97527.88;5073800;28;973;-78
2022/04/24 10:33:20;;;;;;;;;;;;;;;21.24;30.79;97522.31;5020793;28;1977;-78
2022/04/24 10:35:48;;;;;;;;;;;;;;;21.13;30.78;97521.84;5013332;28;1656;-78
2022/04/24 10:38:14;;;;;;;;;;;;;;;21.10;30.97;97525.59;4997675;28;991;-78
2022/04/24 10:40:39;;;;;;;;;;;;;;;21.08;30.69;97522.41;5017730;28;1137;-78
2022/04/24 10:43:07;;;;;;;;;;;;;;;21.14;30.47;97522.63;5034174;28;936;-78
2022/04/24 10:45:43;;;;;;;;;;;;;;;21.07;30.81;97515.16;5053123;28;1640;-77
2022/04/24 10:48:13;;;;;;;;;;;;;;;21.59;30.08;97513.88;5037080;28;854;-78
2022/04/24 10:50:44;;;;;;;;;;;;;;;21.91;29.24;97517.63;5053591;28;991;-78
2022/04/24 10:53:10;;;;;;;;;;;;;;;21.47;29.77;97517.53;5053477;28;1985;-78
2022/04/24 10:55:36;;;;;;;;;;;;;;;21.17;30.40;97528.19;5053730;28;865;-78
2022/04/24 10:58:03;;;;;;;;;;;;;;;21.21;30.41;97522.41;5053206;28;1663;-78
2022/04/24 11:00:32;;;;;;;;;;;;;;;21.17;30.63;97522.53;5053788;28;917;-78
2022/04/24 11:03:08;;;;;;;;;;;;;;;21.20;30.29;97527.28;5055008;28;956;-78
2022/04/24 11:05:37;;;;;;;;;;;;;;;21.59;30.10;97525.22;5056727;28;958;-77
2022/04/24 11:08:03;;;;;;;;;;;;;;;22.03;29.18;97525.31;5056497;28;928;-77
2022/04/24 11:10:28;;;;;;;;;;;;;;;21.65;29.37;97523.38;5073172;28;864;-77
2022/04/24 11:12:55;;;;;;;;;;;;;;;21.26;30.42;97524.69;5072694;28;1914;-78
2022/04/24 11:15:20;;;;;;;;;;;;;;;21.26;30.49;97507.69;5073133;28;936;-77
2022/04/24 11:17:46;;;;;;;;;;;;;;;21.23;30.31;97515.03;5075890;28;856;-78
2022/04/24 11:20:13;;;;;;;;;;;;;;;21.13;30.58;97507.69;5075500;28;836;-78
2022/04/24 11:22:51;;;;;;;;;;;;;;;21.23;30.59;97515.03;5074461;28;1528;-79
2022/04/24 11:25:17;;;;;;;;;;;;;;;21.71;29.50;97510.25;5075653;28;865;-78
2022/04/24 11:27:44;;;;;;;;;;;;;;;21.78;29.45;97507.16;5092853;28;1021;-78
2022/04/24 11:30:15;;;;;;;;;;;;;;;21.45;29.79;97503.84;5093301;28;908;-78
2022/04/24 11:32:41;;;;;;;;;;;;;;;21.31;30.25;97510.78;5093254;28;1992;-78
2022/04/24 11:35:07;;;;;;;;;;;;;;;21.16;30.25;97498.31;5093255;28;900;-78
2022/04/24 11:37:32;;;;;;;;;;;;;;;21.19;30.44;97500.25;5051726;28;1705;-78
2022/04/24 11:40:00;;;;;;;;;;;;;;;21.63;29.74;97502.44;5052460;28;881;-78
2022/04/24 11:42:26;;;;;;;;;;;;;;;21.82;29.38;97495.72;5053347;28;942;-78
2022/04/24 11:50:19;;;;;;;;;;;;;;;21.14;30.45;97489.50;5013002;28;924;-78
2022/04/24 11:52:46;;;;;;;;;;;;;;;21.16;30.31;97486.22;4996075;28;1918;-78
2022/04/24 11:55:12;;;;;;;;;;;;;;;21.22;30.09;97485.16;4954190;28;1324;-78
2022/04/24 11:57:38;;;;;;;;;;;;;;;21.29;30.42;97484.91;4953049;28;1750;-78
2022/04/24 12:00:05;;;;;;;;;;;;;;;21.88;29.31;97490.25;4935456;29;909;-77
2022/04/24 12:02:32;;;;;;;;;;;;;;;21.61;29.24;97488.75;4936132;29;947;-79
2022/04/24 12:04:58;;;;;;;;;;;;;;;21.37;29.91;97487.56;4935529;29;1027;-78
2022/04/24 12:07:32;;;;;;;;;;;;;;;21.13;30.34;97487.91;4935653;29;975;-78
2022/04/24 12:09:59;;;;;;;;;;;;;;;21.05;30.49;97480.91;4935381;29;1023;-79
2022/04/24 12:12:24;;;;;;;;;;;;;;;21.07;30.10;97472.75;4951909;29;1903;-78
2022/04/24 12:14:51;;;;;;;;;;;;;;;21.11;29.94;97476.25;4978893;28;1143;-78
2022/04/24 12:17:17;;;;;;;;;;;;;;;21.14;30.47;97478.19;4973929;28;996;-78
2022/04/24 12:19:48;;;;;;;;;;;;;;;21.79;29.12;97466.25;4965713;28;1870;-78
2022/04/24 12:22:14;;;;;;;;;;;;;;;22.01;28.57;97471.94;4988720;28;1377;-78
2022/04/24 12:24:42;;;;;;;;;;;;;;;21.49;29.26;97475.41;4993063;28;923;-78
2022/04/24 12:27:09;;;;;;;;;;;;;;;21.26;29.76;97474.53;5046129;28;956;-79
2022/04/24 12:29:41;;;;;;;;;;;;;;;21.24;29.75;97471.38;5052362;28;959;-78
2022/04/24 12:32:07;;;;;;;;;;;;;;;21.12;30.18;97475.00;5053394;28;1906;-79
2022/04/24 12:34:42;;;;;;;;;;;;;;;21.18;29.96;97466.72;5046943;28;1639;-79
2022/04/24 12:37:08;;;;;;;;;;;;;;;21.10;29.95;97469.00;5052570;28;999;-78
2022/04/24 12:39:33;;;;;;;;;;;;;;;21.51;29.56;97468.06;5052606;28;941;-77
2022/04/24 12:42:01;;;;;;;;;;;;;;;21.81;29.10;97460.94;5036476;28;917;-79
2022/04/24 12:44:26;;;;;;;;;;;;;;;21.76;28.68;97455.84;5044056;28;1808;-79
2022/04/24 12:46:52;;;;;;;;;;;;;;;21.30;29.65;97461.09;5055979;28;955;-79
2022/04/24 12:49:30;;;;;;;;;;;;;;;21.06;30.09;97459.84;5055771;28;883;-78
2022/04/24 12:51:56;;;;;;;;;;;;;;;21.03;30.03;97457.91;5068838;28;1997;-78
2022/04/24 12:54:21;;;;;;;;;;;;;;;21.08;30.06;97454.53;5095993;28;993;-78
2022/04/24 12:56:47;;;;;;;;;;;;;;;21.71;29.43;97459.28;5095280;28;1595;-78
2022/04/24 12:59:12;;;;;;;;;;;;;;;21.99;28.70;97456.66;5095503;28;896;-79
2022/04/24 13:01:39;;;;;;;;;;;;;;;21.54;29.08;97467.13;5062439;28;952;-79
2022/04/24 13:04:05;;;;;;;;;;;;;;;21.23;29.55;97468.97;5095749;28;1177;-78
2022/04/24 13:06:30;;;;;;;;;;;;;;;21.22;29.83;97462.53;5095739;28;860;-78